sensor_id;sensor_type;location;lat;lon;timestamp;pressure;altitude;pressure_sealevel;temperature;humidity
64668;BME280;51077;42.716;23.344;2023-08-12T00:01:05;95924.81;;;19.78;54.63
64668;BME280;51077;42.716;23.344;2023-08-12T00:03:30;95929.66;;;19.77;54.59
64668;BME280;51077;42.716;23.344;2023-08-12T00:05:57;95925.94;;;19.75;54.68
64668;BME280;51077;42.716;23.344;2023-08-12T00:08:25;95928.53;;;19.73;54.64
64668;BME280;51077;42.716;23.344;2023-08-12T00:10:51;95932.59;;;19.72;54.78
64668;BME280;51077;42.716;23.344;2023-08-12T00:13:16;95929.66;;;19.70;54.65
64668;BME280;51077;42.716;23.344;2023-08-12T00:15:43;95928.91;;;19.69;54.70
64668;BME280;51077;42.716;23.344;2023-08-12T00:18:08;95936.31;;;19.67;54.81
64668;BME280;51077;42.716;23.344;2023-08-12T00:20:34;95923.69;;;19.66;54.80
64668;BME280;51077;42.716;23.344;2023-08-12T00:22:59;95933.38;;;19.65;54.93
64668;BME280;51077;42.716;23.344;2023-08-12T00:25:25;95930.38;;;19.63;54.82
64668;BME280;51077;42.716;23.344;2023-08-12T00:27:50;95933.72;;;19.61;54.95
64668;BME280;51077;42.716;23.344;2023-08-12T00:30:16;95933.00;;;19.61;54.98
64668;BME280;51077;42.716;23.344;2023-08-12T00:32:41;95928.50;;;19.57;54.97
64668;BME280;51077;42.716;23.344;2023-08-12T00:35:07;95929.81;;;19.56;54.96
64668;BME280;51077;42.716;23.344;2023-08-12T00:37:32;95921.25;;;19.54;54.90
64668;BME280;51077;42.716;23.344;2023-08-12T00:39:58;95925.34;;;19.53;54.98
64668;BME280;51077;42.716;23.344;2023-08-12T00:42:23;95925.16;;;19.51;54.95
64668;BME280;51077;42.716;23.344;2023-08-12T00:44:49;95920.13;;;19.50;55.00
64668;BME280;51077;42.716;23.344;2023-08-12T00:47:16;95923.47;;;19.48;55.03
64668;BME280;51077;42.716;23.344;2023-08-12T00:49:42;95924.78;;;19.47;54.99
64668;BME280;51077;42.716;23.344;2023-08-12T00:52:12;95920.31;;;19.44;55.00
64668;BME280;51077;42.716;23.344;2023-08-12T00:54:37;95921.44;;;19.41;55.05
64668;BME280;51077;42.716;23.344;2023-08-12T00:57:03;95918.66;;;19.41;54.91
64668;BME280;51077;42.716;23.344;2023-08-12T00:59:29;95914.38;;;19.40;55.02
64668;BME280;51077;42.716;23.344;2023-08-12T01:01:54;95912.91;;;19.39;55.08
64668;BME280;51077;42.716;23.344;2023-08-12T01:04:20;95916.25;;;19.38;55.16
64668;BME280;51077;42.716;23.344;2023-08-12T01:06:45;95913.25;;;19.36;55.11
64668;BME280;51077;42.716;23.344;2023-08-12T01:09:11;95912.53;;;19.35;55.14
64668;BME280;51077;42.716;23.344;2023-08-12T01:12:04;95904.00;;;19.33;55.14
64668;BME280;51077;42.716;23.344;2023-08-12T01:17:11;95914.75;;;19.29;55.18
64668;BME280;51077;42.716;23.344;2023-08-12T01:19:39;95907.69;;;19.28;55.23
64668;BME280;51077;42.716;23.344;2023-08-12T01:22:08;95913.06;;;19.26;55.18
64668;BME280;51077;42.716;23.344;2023-08-12T01:27:04;95908.44;;;19.21;55.38
64668;BME280;51077;42.716;23.344;2023-08-12T01:29:31;95906.00;;;19.17;55.37
64668;BME280;51077;42.716;23.344;2023-08-12T01:34:49;95907.09;;;19.14;55.56
64668;BME280;51077;42.716;23.344;2023-08-12T01:37:22;95903.41;;;19.12;55.77
64668;BME280;51077;42.716;23.344;2023-08-12T01:39:49;95901.72;;;19.08;55.89
64668;BME280;51077;42.716;23.344;2023-08-12T01:42:17;95905.81;;;19.07;55.83
64668;BME280;51077;42.716;23.344;2023-08-12T01:44:44;95905.59;;;19.05;55.81
64668;BME280;51077;42.716;23.344;2023-08-12T01:47:09;95898.38;;;19.02;55.96
64668;BME280;51077;42.716;23.344;2023-08-12T01:49:35;95900.97;;;19.00;55.84
64668;BME280;51077;42.716;23.344;2023-08-12T01:52:00;95909.13;;;18.98;56.00
64668;BME280;51077;42.716;23.344;2023-08-12T01:54:26;95906.16;;;18.96;56.09
64668;BME280;51077;42.716;23.344;2023-08-12T01:56:51;95900.41;;;18.94;56.08
64668;BME280;51077;42.716;23.344;2023-08-12T01:59:16;95907.81;;;18.92;56.23
64668;BME280;51077;42.716;23.344;2023-08-12T02:01:42;95905.75;;;18.92;56.09
64668;BME280;51077;42.716;23.344;2023-08-12T02:04:07;95904.84;;;18.90;56.25
64668;BME280;51077;42.716;23.344;2023-08-12T02:06:33;95906.69;;;18.87;56.14
64668;BME280;51077;42.716;23.344;2023-08-12T02:08:58;95909.28;;;18.85;56.26
64668;BME280;51077;42.716;23.344;2023-08-12T02:11:23;95911.13;;;18.82;56.16
64668;BME280;51077;42.716;23.344;2023-08-12T02:13:49;95912.44;;;18.81;56.12
64668;BME280;51077;42.716;23.344;2023-08-12T02:16:14;95907.97;;;18.78;56.31
64668;BME280;51077;42.716;23.344;2023-08-12T02:18:39;95904.22;;;18.76;56.35
64668;BME280;51077;42.716;23.344;2023-08-12T02:21:05;95902.75;;;18.75;56.23
64668;BME280;51077;42.716;23.344;2023-08-12T02:23:30;95902.56;;;18.73;56.31
64668;BME280;51077;42.716;23.344;2023-08-12T02:25:55;95898.09;;;18.70;56.13
64668;BME280;51077;42.716;23.344;2023-08-12T02:28:21;95915.31;;;18.68;56.07
64668;BME280;51077;42.716;23.344;2023-08-12T02:30:46;95917.16;;;18.66;56.17
64668;BME280;51077;42.716;23.344;2023-08-12T02:33:12;95908.63;;;18.64;55.96
64668;BME280;51077;42.716;23.344;2023-08-12T02:35:39;95901.56;;;18.63;55.96
64668;BME280;51077;42.716;23.344;2023-08-12T02:38:05;95908.25;;;18.59;55.87
64668;BME280;51077;42.716;23.344;2023-08-12T02:40:30;95901.19;;;18.58;56.00
64668;BME280;51077;42.716;23.344;2023-08-12T02:42:56;95914.91;;;18.56;55.69
64668;BME280;51077;42.716;23.344;2023-08-12T02:45:21;95913.94;;;18.54;55.91
64668;BME280;51077;42.716;23.344;2023-08-12T02:47:46;95907.66;;;18.53;55.94
64668;BME280;51077;42.716;23.344;2023-08-12T02:50:12;95919.13;;;18.50;55.94
64668;BME280;51077;42.716;23.344;2023-08-12T02:52:37;95918.38;;;18.49;55.95
64668;BME280;51077;42.716;23.344;2023-08-12T02:55:03;95921.50;;;18.46;55.68
64668;BME280;51077;42.716;23.344;2023-08-12T02:57:28;95923.38;;;18.43;55.67
64668;BME280;51077;42.716;23.344;2023-08-12T02:59:53;95916.84;;;18.41;55.68
64668;BME280;51077;42.716;23.344;2023-08-12T03:02:19;95922.22;;;18.39;55.50
64668;BME280;51077;42.716;23.344;2023-08-12T03:04:44;95924.81;;;18.37;55.69
64668;BME280;51077;42.716;23.344;2023-08-12T03:07:10;95932.22;;;18.34;55.44
64668;BME280;51077;42.716;23.344;2023-08-12T03:09:35;95932.22;;;18.34;55.36
64668;BME280;51077;42.716;23.344;2023-08-12T03:12:00;95927.00;;;18.30;55.46
64668;BME280;51077;42.716;23.344;2023-08-12T03:14:28;95931.09;;;18.29;55.32
64668;BME280;51077;42.716;23.344;2023-08-12T03:16:54;95932.38;;;18.28;55.27
64668;BME280;51077;42.716;23.344;2023-08-12T03:19:20;95931.44;;;18.26;55.22
64668;BME280;51077;42.716;23.344;2023-08-12T03:21:45;95929.19;;;18.24;55.36
64668;BME280;51077;42.716;23.344;2023-08-12T03:24:11;95932.50;;;18.23;55.24
64668;BME280;51077;42.716;23.344;2023-08-12T03:26:36;95929.56;;;18.21;55.29
64668;BME280;51077;42.716;23.344;2023-08-12T03:29:01;95933.63;;;18.20;55.42
64668;BME280;51077;42.716;23.344;2023-08-12T03:31:27;95933.63;;;18.20;55.34
64668;BME280;51077;42.716;23.344;2023-08-12T03:33:52;95941.75;;;18.18;55.45
64668;BME280;51077;42.716;23.344;2023-08-12T03:36:17;95938.22;;;18.17;55.52
64668;BME280;51077;42.716;23.344;2023-08-12T03:38:43;95936.53;;;18.14;55.38
64668;BME280;51077;42.716;23.344;2023-08-12T03:41:08;95933.75;;;18.14;55.43
64668;BME280;51077;42.716;23.344;2023-08-12T03:43:33;95942.09;;;18.14;55.52
64668;BME280;51077;42.716;23.344;2023-08-12T03:45:59;95941.34;;;18.14;55.51
64668;BME280;51077;42.716;23.344;2023-08-12T03:48:25;95940.63;;;18.13;55.42
64668;BME280;51077;42.716;23.344;2023-08-12T03:50:50;95944.13;;;18.14;55.48
64668;BME280;51077;42.716;23.344;2023-08-12T03:53:15;95942.09;;;18.14;55.30
64668;BME280;51077;42.716;23.344;2023-08-12T03:55:42;95936.53;;;18.14;55.46
64668;BME280;51077;42.716;23.344;2023-08-12T03:58:08;95948.59;;;18.17;55.38
64668;BME280;51077;42.716;23.344;2023-08-12T04:00:33;95941.41;;;18.21;55.14
64668;BME280;51077;42.716;23.344;2023-08-12T04:02:59;95940.72;;;18.28;55.56
64668;BME280;51077;42.716;23.344;2023-08-12T04:05:25;95941.63;;;18.31;55.59
64668;BME280;51077;42.716;23.344;2023-08-12T04:07:51;95942.38;;;18.31;55.59
64668;BME280;51077;42.716;23.344;2023-08-12T04:10:16;95948.16;;;18.33;55.53
64668;BME280;51077;42.716;23.344;2023-08-12T04:12:42;95953.88;;;18.36;55.48
64668;BME280;51077;42.716;23.344;2023-08-12T04:15:08;95953.53;;;18.39;55.65
64668;BME280;51077;42.716;23.344;2023-08-12T04:17:33;95952.47;;;18.42;55.73
64668;BME280;51077;42.716;23.344;2023-08-12T04:19:59;95959.16;;;18.47;55.68
64668;BME280;51077;42.716;23.344;2023-08-12T04:22:24;95961.22;;;18.54;55.69
64668;BME280;51077;42.716;23.344;2023-08-12T04:24:50;95958.81;;;18.58;55.79
64668;BME280;51077;42.716;23.344;2023-08-12T04:27:15;95957.16;;;18.63;55.52
64668;BME280;51077;42.716;23.344;2023-08-12T04:29:45;95955.75;;;18.69;55.55
64668;BME280;51077;42.716;23.344;2023-08-12T04:32:10;95951.31;;;18.74;55.56
64668;BME280;51077;42.716;23.344;2023-08-12T04:34:36;95954.69;;;18.80;55.34
64668;BME280;51077;42.716;23.344;2023-08-12T04:37:01;95956.94;;;18.89;55.43
64668;BME280;51077;42.716;23.344;2023-08-12T04:39:27;95958.25;;;18.96;54.93
64668;BME280;51077;42.716;23.344;2023-08-12T04:41:53;95959.56;;;19.02;54.88
64668;BME280;51077;42.716;23.344;2023-08-12T04:44:18;95949.94;;;19.11;54.73
64668;BME280;51077;42.716;23.344;2023-08-12T04:46:43;95952.22;;;19.20;54.58
64668;BME280;51077;42.716;23.344;2023-08-12T04:49:09;95956.69;;;19.31;54.40
64668;BME280;51077;42.716;23.344;2023-08-12T04:51:34;95961.91;;;19.42;54.21
64668;BME280;51077;42.716;23.344;2023-08-12T04:53:59;95962.66;;;19.58;53.79
64668;BME280;51077;42.716;23.344;2023-08-12T04:56:27;95956.19;;;19.94;53.24
64668;BME280;51077;42.716;23.344;2023-08-12T04:58:54;95958.56;;;20.28;52.18
64668;BME280;51077;42.716;23.344;2023-08-12T05:01:19;95953.16;;;20.38;51.87
64668;BME280;51077;42.716;23.344;2023-08-12T05:03:45;95961.13;;;20.56;51.54
64668;BME280;51077;42.716;23.344;2023-08-12T05:06:10;95955.09;;;20.75;50.99
64668;BME280;51077;42.716;23.344;2023-08-12T05:08:36;95961.97;;;20.82;51.00
64668;BME280;51077;42.716;23.344;2023-08-12T05:11:01;95956.03;;;20.78;50.79
64668;BME280;51077;42.716;23.344;2023-08-12T05:13:26;95961.25;;;20.74;51.20
64668;BME280;51077;42.716;23.344;2023-08-12T05:15:54;95961.06;;;20.72;51.31
64668;BME280;51077;42.716;23.344;2023-08-12T05:18:21;95964.63;;;20.72;51.44
64668;BME280;51077;42.716;23.344;2023-08-12T05:20:48;95967.41;;;20.72;51.26
64668;BME280;51077;42.716;23.344;2023-08-12T05:23:15;95967.75;;;20.76;51.48
64668;BME280;51077;42.716;23.344;2023-08-12T05:25:41;95972.94;;;20.80;51.29
64668;BME280;51077;42.716;23.344;2023-08-12T05:28:06;95973.66;;;20.88;51.30
64668;BME280;51077;42.716;23.344;2023-08-12T05:30:32;95970.66;;;20.94;51.04
64668;BME280;51077;42.716;23.344;2023-08-12T05:32:58;95973.06;;;20.97;50.95
64668;BME280;51077;42.716;23.344;2023-08-12T05:35:24;95963.72;;;21.02;51.29
64668;BME280;51077;42.716;23.344;2023-08-12T05:37:49;95977.66;;;21.10;50.81
64668;BME280;51077;42.716;23.344;2023-08-12T05:40:15;95976.13;;;21.17;50.74
64668;BME280;51077;42.716;23.344;2023-08-12T05:42:40;95974.97;;;21.20;50.96
64668;BME280;51077;42.716;23.344;2023-08-12T05:45:06;95975.91;;;21.22;50.96
64668;BME280;51077;42.716;23.344;2023-08-12T05:47:32;95975.69;;;21.28;50.99
64668;BME280;51077;42.716;23.344;2023-08-12T05:49:57;95977.53;;;21.33;51.27
64668;BME280;51077;42.716;23.344;2023-08-12T05:52:23;95976.59;;;21.38;51.25
64668;BME280;51077;42.716;23.344;2023-08-12T05:54:48;95975.06;;;21.45;50.95
64668;BME280;51077;42.716;23.344;2023-08-12T05:57:13;95971.31;;;21.50;50.77
64668;BME280;51077;42.716;23.344;2023-08-12T05:59:39;95970.38;;;21.55;50.95
64668;BME280;51077;42.716;23.344;2023-08-12T06:02:04;95967.50;;;21.63;50.98
64668;BME280;51077;42.716;23.344;2023-08-12T06:04:30;95963.72;;;21.68;50.54
64668;BME280;51077;42.716;23.344;2023-08-12T06:06:56;95965.97;;;21.69;50.26
64668;BME280;51077;42.716;23.344;2023-08-12T06:09:21;95957.94;;;21.73;50.06
64668;BME280;51077;42.716;23.344;2023-08-12T06:11:47;95953.75;;;21.82;50.26
64668;BME280;51077;42.716;23.344;2023-08-12T06:14:12;95949.41;;;21.89;50.24
64668;BME280;51077;42.716;23.344;2023-08-12T06:16:38;95948.78;;;21.98;50.10
64668;BME280;51077;42.716;23.344;2023-08-12T06:19:03;95946.66;;;22.06;49.50
64668;BME280;51077;42.716;23.344;2023-08-12T06:21:29;95952.03;;;22.12;48.97
64668;BME280;51077;42.716;23.344;2023-08-12T06:23:55;95957.56;;;22.19;48.78
64668;BME280;51077;42.716;23.344;2023-08-12T06:26:21;95954.53;;;22.25;48.49
64668;BME280;51077;42.716;23.344;2023-08-12T06:28:46;95950.91;;;22.32;48.12
64668;BME280;51077;42.716;23.344;2023-08-12T06:31:11;95946.97;;;22.35;47.84
64668;BME280;51077;42.716;23.344;2023-08-12T06:33:37;95946.72;;;22.41;47.18
64668;BME280;51077;42.716;23.344;2023-08-12T06:36:02;95943.84;;;22.48;47.34
64668;BME280;51077;42.716;23.344;2023-08-12T06:38:28;95933.31;;;22.56;47.04
64668;BME280;51077;42.716;23.344;2023-08-12T06:40:54;95935.59;;;22.68;46.57
64668;BME280;51077;42.716;23.344;2023-08-12T06:43:20;95939.38;;;22.80;46.63
64668;BME280;51077;42.716;23.344;2023-08-12T06:45:46;95938.63;;;22.97;46.59
64668;BME280;51077;42.716;23.344;2023-08-12T06:48:11;95938.75;;;23.16;46.07
64668;BME280;51077;42.716;23.344;2023-08-12T06:50:37;95933.84;;;23.34;45.85
64668;BME280;51077;42.716;23.344;2023-08-12T06:53:02;95934.66;;;23.54;45.51
64668;BME280;51077;42.716;23.344;2023-08-12T06:55:28;95929.91;;;23.74;45.41
64668;BME280;51077;42.716;23.344;2023-08-12T06:57:53;95932.16;;;23.95;45.12
64668;BME280;51077;42.716;23.344;2023-08-12T07:00:19;95932.94;;;24.15;44.48
64668;BME280;51077;42.716;23.344;2023-08-12T07:02:44;95930.75;;;24.32;43.73
64668;BME280;51077;42.716;23.344;2023-08-12T07:05:09;95924.88;;;24.48;43.75
64668;BME280;51077;42.716;23.344;2023-08-12T07:07:35;95928.72;;;24.62;44.24
64668;BME280;51077;42.716;23.344;2023-08-12T07:10:00;95927.97;;;24.81;42.25
64668;BME280;51077;42.716;23.344;2023-08-12T07:12:26;95924.84;;;24.96;41.89
64668;BME280;51077;42.716;23.344;2023-08-12T07:14:52;95920.84;;;25.19;41.89
64668;BME280;51077;42.716;23.344;2023-08-12T07:17:17;95921.53;;;25.39;41.54
64668;BME280;51077;42.716;23.344;2023-08-12T07:19:43;95926.34;;;25.57;41.47
64668;BME280;51077;42.716;23.344;2023-08-12T07:22:08;95927.16;;;25.79;40.56
64668;BME280;51077;42.716;23.344;2023-08-12T07:24:33;95917.72;;;25.96;40.59
64668;BME280;51077;42.716;23.344;2023-08-12T07:26:59;95924.72;;;26.17;39.86
64668;BME280;51077;42.716;23.344;2023-08-12T07:29:24;95923.13;;;26.35;39.30
64668;BME280;51077;42.716;23.344;2023-08-12T07:31:51;95915.41;;;26.57;39.10
64668;BME280;51077;42.716;23.344;2023-08-12T07:34:17;95917.22;;;26.74;38.90
64668;BME280;51077;42.716;23.344;2023-08-12T07:36:42;95920.44;;;26.92;38.63
64668;BME280;51077;42.716;23.344;2023-08-12T07:39:08;95920.91;;;27.10;38.04
64668;BME280;51077;42.716;23.344;2023-08-12T07:41:33;95915.56;;;27.25;37.93
64668;BME280;51077;42.716;23.344;2023-08-12T07:43:58;95917.50;;;27.46;37.04
64668;BME280;51077;42.716;23.344;2023-08-12T07:46:24;95914.22;;;27.62;36.50
64668;BME280;51077;42.716;23.344;2023-08-12T07:48:49;95904.06;;;27.80;36.72
64668;BME280;51077;42.716;23.344;2023-08-12T07:51:14;95913.03;;;28.00;36.07
64668;BME280;51077;42.716;23.344;2023-08-12T07:53:40;95904.88;;;28.18;35.77
64668;BME280;51077;42.716;23.344;2023-08-12T07:56:05;95901.53;;;28.45;34.87
64668;BME280;51077;42.716;23.344;2023-08-12T07:58:31;95896.31;;;28.65;34.53
64668;BME280;51077;42.716;23.344;2023-08-12T08:00:56;95893.88;;;28.85;34.44
64668;BME280;51077;42.716;23.344;2023-08-12T08:03:21;95895.63;;;29.03;33.39
64668;BME280;51077;42.716;23.344;2023-08-12T08:05:47;95889.63;;;29.23;32.92
64668;BME280;51077;42.716;23.344;2023-08-12T08:08:14;95888.28;;;29.38;33.21
64668;BME280;51077;42.716;23.344;2023-08-12T08:10:39;95893.44;;;29.55;32.33
64668;BME280;51077;42.716;23.344;2023-08-12T08:13:04;95887.44;;;29.61;31.75
64668;BME280;51077;42.716;23.344;2023-08-12T08:15:30;95881.34;;;29.66;31.74
64668;BME280;51077;42.716;23.344;2023-08-12T08:17:55;95889.75;;;29.78;31.50
64668;BME280;51077;42.716;23.344;2023-08-12T08:20:21;95880.31;;;30.01;31.15
64668;BME280;51077;42.716;23.344;2023-08-12T08:22:46;95887.63;;;30.20;31.03
64668;BME280;51077;42.716;23.344;2023-08-12T08:25:12;95883.59;;;30.39;30.15
64668;BME280;51077;42.716;23.344;2023-08-12T08:27:38;95885.25;;;30.58;30.30
64668;BME280;51077;42.716;23.344;2023-08-12T08:30:05;95880.59;;;30.64;29.83
64668;BME280;51077;42.716;23.344;2023-08-12T08:32:31;95878.06;;;30.84;29.04
64668;BME280;51077;42.716;23.344;2023-08-12T08:34:57;95876.59;;;30.83;29.42
64668;BME280;51077;42.716;23.344;2023-08-12T08:37:22;95870.03;;;30.94;29.44
64668;BME280;51077;42.716;23.344;2023-08-12T08:39:48;95868.03;;;31.13;28.66
64668;BME280;51077;42.716;23.344;2023-08-12T08:42:15;95860.50;;;31.33;28.75
64668;BME280;51077;42.716;23.344;2023-08-12T08:44:42;95865.72;;;31.54;28.59
64668;BME280;51077;42.716;23.344;2023-08-12T08:47:08;95863.41;;;31.67;28.71
64668;BME280;51077;42.716;23.344;2023-08-12T08:49:34;95861.84;;;31.79;28.27
64668;BME280;51077;42.716;23.344;2023-08-12T08:52:01;95864.75;;;31.97;27.77
64668;BME280;51077;42.716;23.344;2023-08-12T08:54:27;95863.56;;;32.02;28.00
64668;BME280;51077;42.716;23.344;2023-08-12T08:56:52;95855.63;;;32.17;28.00
64668;BME280;51077;42.716;23.344;2023-08-12T08:59:18;95865.88;;;32.40;27.64
64668;BME280;51077;42.716;23.344;2023-08-12T09:01:46;95857.25;;;32.38;27.40
64668;BME280;51077;42.716;23.344;2023-08-12T09:04:13;95857.25;;;32.56;26.78
64668;BME280;51077;42.716;23.344;2023-08-12T09:06:39;95854.91;;;32.68;26.52
64668;BME280;51077;42.716;23.344;2023-08-12T09:09:13;95855.97;;;32.76;26.54
64668;BME280;51077;42.716;23.344;2023-08-12T09:11:39;95858.03;;;32.92;26.75
64668;BME280;51077;42.716;23.344;2023-08-12T09:14:05;95846.78;;;33.14;26.20
64668;BME280;51077;42.716;23.344;2023-08-12T09:16:31;95846.13;;;33.15;25.98
64668;BME280;51077;42.716;23.344;2023-08-12T09:18:57;95841.69;;;33.30;26.44
64668;BME280;51077;42.716;23.344;2023-08-12T09:21:23;95846.16;;;33.35;25.95
64668;BME280;51077;42.716;23.344;2023-08-12T09:23:51;95833.03;;;33.46;25.64
64668;BME280;51077;42.716;23.344;2023-08-12T09:26:19;95835.03;;;33.61;25.60
64668;BME280;51077;42.716;23.344;2023-08-12T09:28:48;95830.66;;;33.58;25.60
64668;BME280;51077;42.716;23.344;2023-08-12T09:31:25;95825.44;;;33.72;25.05
64668;BME280;51077;42.716;23.344;2023-08-12T09:33:52;95817.69;;;33.95;25.10
64668;BME280;51077;42.716;23.344;2023-08-12T09:36:18;95818.41;;;34.15;24.83
64668;BME280;51077;42.716;23.344;2023-08-12T09:38:47;95818.28;;;34.33;24.58
64668;BME280;51077;42.716;23.344;2023-08-12T09:41:12;95809.88;;;34.37;24.62
64668;BME280;51077;42.716;23.344;2023-08-12T09:43:44;95812.00;;;34.59;23.40
64668;BME280;51077;42.716;23.344;2023-08-12T09:46:13;95803.38;;;34.57;24.15
64668;BME280;51077;42.716;23.344;2023-08-12T09:48:39;95802.78;;;34.38;24.52
64668;BME280;51077;42.716;23.344;2023-08-12T09:51:05;95798.31;;;34.77;23.83
64668;BME280;51077;42.716;23.344;2023-08-12T09:53:32;95800.50;;;34.79;23.52
64668;BME280;51077;42.716;23.344;2023-08-12T09:55:59;95802.56;;;34.98;23.47
64668;BME280;51077;42.716;23.344;2023-08-12T09:58:27;95790.94;;;35.16;23.31
64668;BME280;51077;42.716;23.344;2023-08-12T10:00:56;95790.03;;;35.33;23.57
64668;BME280;51077;42.716;23.344;2023-08-12T10:03:23;95784.69;;;35.71;23.06
64668;BME280;51077;42.716;23.344;2023-08-12T10:05:49;95791.81;;;35.70;22.96
64668;BME280;51077;42.716;23.344;2023-08-12T10:08:16;95786.59;;;35.91;22.31
64668;BME280;51077;42.716;23.344;2023-08-12T10:10:43;95778.66;;;35.87;22.44
64668;BME280;51077;42.716;23.344;2023-08-12T10:13:10;95777.28;;;35.88;22.35
64668;BME280;51077;42.716;23.344;2023-08-12T10:15:36;95771.84;;;35.98;22.88
64668;BME280;51077;42.716;23.344;2023-08-12T10:18:03;95775.97;;;36.49;21.39
64668;BME280;51077;42.716;23.344;2023-08-12T10:20:29;95772.31;;;36.45;21.52
64668;BME280;51077;42.716;23.344;2023-08-12T10:22:56;95781.59;;;36.76;21.33
64668;BME280;51077;42.716;23.344;2023-08-12T10:25:24;95770.06;;;36.71;21.53
64668;BME280;51077;42.716;23.344;2023-08-12T10:27:50;95768.63;;;36.72;21.24
64668;BME280;51077;42.716;23.344;2023-08-12T10:30:16;95766.97;;;36.93;21.06
64668;BME280;51077;42.716;23.344;2023-08-12T10:32:42;95763.97;;;37.21;20.83
64668;BME280;51077;42.716;23.344;2023-08-12T10:35:08;95764.94;;;36.98;21.39
64668;BME280;51077;42.716;23.344;2023-08-12T10:37:37;95756.91;;;37.24;20.83
64668;BME280;51077;42.716;23.344;2023-08-12T10:40:04;95752.84;;;37.36;21.36
64668;BME280;51077;42.716;23.344;2023-08-12T10:42:46;95739.66;;;37.57;20.64
64668;BME280;51077;42.716;23.344;2023-08-12T10:45:14;95737.78;;;37.71;20.45
64668;BME280;51077;42.716;23.344;2023-08-12T10:47:47;95743.28;;;37.97;20.47
64668;BME280;51077;42.716;23.344;2023-08-12T10:50:21;95735.56;;;38.08;20.45
64668;BME280;51077;42.716;23.344;2023-08-12T10:52:47;95731.63;;;38.30;19.68
64668;BME280;51077;42.716;23.344;2023-08-12T10:55:19;95736.59;;;38.27;19.02
64668;BME280;51077;42.716;23.344;2023-08-12T10:57:46;95728.03;;;38.29;18.83
64668;BME280;51077;42.716;23.344;2023-08-12T11:00:17;95731.53;;;38.23;18.63
64668;BME280;51077;42.716;23.344;2023-08-12T11:02:49;95735.19;;;38.30;18.03
64668;BME280;51077;42.716;23.344;2023-08-12T11:05:15;95733.53;;;38.15;17.97
64668;BME280;51077;42.716;23.344;2023-08-12T11:10:11;95729.09;;;38.06;17.96
64668;BME280;51077;42.716;23.344;2023-08-12T11:12:38;95716.84;;;38.45;17.14
64668;BME280;51077;42.716;23.344;2023-08-12T11:15:05;95713.84;;;38.37;17.44
64668;BME280;51077;42.716;23.344;2023-08-12T11:17:36;95719.66;;;38.41;17.43
64668;BME280;51077;42.716;23.344;2023-08-12T11:20:04;95701.97;;;38.59;16.61
64668;BME280;51077;42.716;23.344;2023-08-12T11:22:31;95717.63;;;38.06;17.37
64668;BME280;51077;42.716;23.344;2023-08-12T11:24:57;95712.66;;;38.55;16.39
64668;BME280;51077;42.716;23.344;2023-08-12T11:27:23;95707.94;;;38.76;16.05
64668;BME280;51077;42.716;23.344;2023-08-12T11:29:51;95699.59;;;38.94;16.23
64668;BME280;51077;42.716;23.344;2023-08-12T11:32:18;95702.69;;;38.58;16.61
64668;BME280;51077;42.716;23.344;2023-08-12T11:34:44;95705.38;;;38.45;16.46
64668;BME280;51077;42.716;23.344;2023-08-12T11:37:09;95698.28;;;38.06;16.86
64668;BME280;51077;42.716;23.344;2023-08-12T11:39:35;95695.28;;;37.98;17.31
64668;BME280;51077;42.716;23.344;2023-08-12T11:42:00;95694.34;;;38.30;17.16
64668;BME280;51077;42.716;23.344;2023-08-12T11:44:26;95686.84;;;38.55;16.84
64668;BME280;51077;42.716;23.344;2023-08-12T11:46:51;95694.00;;;38.54;17.16
64668;BME280;51077;42.716;23.344;2023-08-12T11:49:17;95691.28;;;38.66;17.03
64668;BME280;51077;42.716;23.344;2023-08-12T11:51:44;95689.06;;;38.14;17.65
64668;BME280;51077;42.716;23.344;2023-08-12T11:54:14;95690.22;;;37.54;18.00
64668;BME280;51077;42.716;23.344;2023-08-12T11:56:40;95685.34;;;36.90;18.82
64668;BME280;51077;42.716;23.344;2023-08-12T11:59:07;95681.19;;;36.31;19.99
64668;BME280;51077;42.716;23.344;2023-08-12T12:01:32;95684.81;;;36.66;18.96
64668;BME280;51077;42.716;23.344;2023-08-12T12:04:00;95685.22;;;37.18;18.97
64668;BME280;51077;42.716;23.344;2023-08-12T12:06:35;95681.00;;;37.60;18.71
64668;BME280;51077;42.716;23.344;2023-08-12T12:09:06;95669.63;;;38.06;18.39
64668;BME280;51077;42.716;23.344;2023-08-12T12:11:35;95672.09;;;38.28;18.44
64668;BME280;51077;42.716;23.344;2023-08-12T12:14:02;95670.91;;;38.43;17.75
64668;BME280;51077;42.716;23.344;2023-08-12T12:16:39;95667.75;;;38.25;17.96
64668;BME280;51077;42.716;23.344;2023-08-12T12:19:09;95671.00;;;38.50;17.78
64668;BME280;51077;42.716;23.344;2023-08-12T12:21:41;95667.69;;;38.69;17.60
64668;BME280;51077;42.716;23.344;2023-08-12T12:24:10;95665.50;;;38.68;17.65
64668;BME280;51077;42.716;23.344;2023-08-12T12:26:36;95661.28;;;38.73;17.73
64668;BME280;51077;42.716;23.344;2023-08-12T12:29:05;95660.84;;;38.95;17.47
64668;BME280;51077;42.716;23.344;2023-08-12T12:31:35;95667.22;;;38.87;17.48
64668;BME280;51077;42.716;23.344;2023-08-12T12:34:02;95655.00;;;38.34;18.11
64668;BME280;51077;42.716;23.344;2023-08-12T12:36:29;95660.88;;;37.56;18.90
64668;BME280;51077;42.716;23.344;2023-08-12T12:38:54;95661.03;;;36.91;19.39
64668;BME280;51077;42.716;23.344;2023-08-12T12:41:19;95662.56;;;36.30;19.92
64668;BME280;51077;42.716;23.344;2023-08-12T12:43:45;95658.75;;;35.89;20.57
64668;BME280;51077;42.716;23.344;2023-08-12T12:46:11;95663.50;;;35.50;20.84
64668;BME280;51077;42.716;23.344;2023-08-12T12:48:36;95654.69;;;35.14;21.36
64668;BME280;51077;42.716;23.344;2023-08-12T12:51:02;95646.63;;;34.83;21.75
64668;BME280;51077;42.716;23.344;2023-08-12T12:53:27;95651.66;;;34.58;22.11
64668;BME280;51077;42.716;23.344;2023-08-12T12:55:53;95648.84;;;34.36;21.97